Annapolis, Illinois
Current Conditions -  °F | °C
As of 12:15 AM on Wednesday 22 Oct 2014 (Local Time) from KRSV Reporting Station
Clear Clear  
Wind Chill:   Ceiling: Unl
Heat Index:   Visibility: 10mi
Dew Point:   Wind: 6mph
Humidity: 88%   Direction: 20°NNE
Pressure: 30.23"   Gusts: NA
Location:  39.14°N, 87.82°W
Report Text: KRSV 220515Z AUTO 02005KT 10SM CLR 08/06 A3023 RMK AO2 T00770059
Loading
Personal Weather Stations






























Interactive Weather Map New forecast layout! Learn more

10-Day Weather Forecast

Advertisements
Track Severe Weather on mobile